Time;durP1;ratioP1;P1;durP2;ratioP2;P2;SDS_P1;SDS_P2;PMS_P1;PMS_P2;Temp;Humidity;BMP_temperature;BMP_pressure;BME280_temperature;BME280_humidity;BME280_pressure;Samples;Min_cycle;Max_cycle;Signal;HPM_P1;HPM_P2
2022/12/31 06:00:43;;;;;;;1.63;0.80;;;14.20;97.20;;;;;;1727326;28;20289;-73
2022/12/31 06:01:34;;;;;;;1.35;0.77;;;14.20;97.20;;;;;;1727086;28;20223;-73
2022/12/31 06:02:25;;;;;;;0.70;0.50;;;14.20;97.20;;;;;;1726746;28;20219;-74
2022/12/31 06:03:17;;;;;;;0.93;0.70;;;14.20;97.20;;;;;;1727253;28;20196;-73
2022/12/31 06:04:07;;;;;;;0.80;0.77;;;14.20;97.20;;;;;;1727256;28;20806;-74
2022/12/31 06:05:00;;;;;;;1.77;0.63;;;14.20;97.20;;;;;;1727321;28;20568;-74
2022/12/31 06:05:50;;;;;;;2.55;0.80;;;14.20;97.20;;;;;;1727368;28;20200;-73
2022/12/31 06:06:42;;;;;;;1.00;0.83;;;14.20;97.20;;;;;;1727031;28;20201;-73
2022/12/31 06:07:33;;;;;;;1.92;0.88;;;14.20;97.20;;;;;;1727298;28;20215;-73
2022/12/31 06:08:25;;;;;;;1.05;0.70;;;14.20;97.20;;;;;;1727384;28;20196;-73
2022/12/31 06:09:17;;;;;;;1.52;0.57;;;14.20;97.20;;;;;;1727228;28;20200;-73
2022/12/31 06:10:09;;;;;;;1.10;0.70;;;14.20;97.20;;;;;;1726525;28;20276;-73
2022/12/31 06:11:00;;;;;;;1.98;0.75;;;14.20;97.20;;;;;;1727194;28;20614;-72
2022/12/31 06:11:51;;;;;;;1.67;0.70;;;14.20;97.20;;;;;;1727127;28;20564;-73
2022/12/31 06:12:42;;;;;;;1.20;0.75;;;14.20;97.20;;;;;;1726635;28;20443;-73
2022/12/31 06:13:34;;;;;;;1.00;0.70;;;14.20;97.20;;;;;;1727190;28;20204;-73
2022/12/31 06:14:25;;;;;;;0.70;0.60;;;14.30;97.20;;;;;;1727208;28;20203;-73
2022/12/31 06:15:16;;;;;;;0.90;0.70;;;14.30;97.20;;;;;;1727296;28;20196;-73
2022/12/31 06:16:09;;;;;;;1.35;0.68;;;14.30;97.20;;;;;;1727320;28;20200;-73
2022/12/31 06:17:01;;;;;;;0.80;0.70;;;14.30;97.20;;;;;;1727041;28;20280;-73
2022/12/31 06:17:52;;;;;;;1.10;0.80;;;14.30;97.20;;;;;;1727263;28;20213;-73
2022/12/31 06:18:45;;;;;;;2.43;0.90;;;14.30;97.20;;;;;;1727257;28;20657;-73
2022/12/31 06:19:35;;;;;;;1.17;0.63;;;14.30;97.20;;;;;;1727160;28;20224;-73
2022/12/31 06:20:27;;;;;;;0.70;0.60;;;14.30;97.20;;;;;;1727141;28;20200;-73
2022/12/31 06:21:19;;;;;;;1.02;0.60;;;14.30;97.20;;;;;;1726933;28;20570;-73
2022/12/31 06:22:11;;;;;;;1.25;0.60;;;14.30;97.20;;;;;;1726661;28;20193;-73
2022/12/31 06:23:02;;;;;;;1.27;0.70;;;14.30;97.20;;;;;;1727201;28;20373;-73
2022/12/31 06:23:54;;;;;;;1.33;0.60;;;14.30;97.20;;;;;;1726367;28;20205;-73
2022/12/31 06:24:44;;;;;;;5.30;1.20;;;14.30;97.20;;;;;;1726532;28;20784;-73
2022/12/31 06:25:37;;;;;;;0.80;0.60;;;14.30;97.20;;;;;;1726526;28;20215;-73
2022/12/31 06:26:27;;;;;;;1.98;0.90;;;14.30;97.20;;;;;;1726636;28;20207;-73
2022/12/31 06:27:19;;;;;;;0.90;0.70;;;14.30;97.20;;;;;;1726745;28;20211;-73
2022/12/31 06:28:10;;;;;;;1.45;0.80;;;14.30;97.20;;;;;;1726504;28;20201;-73
2022/12/31 06:29:01;;;;;;;0.80;0.60;;;14.30;97.20;;;;;;1726351;28;20199;-73
2022/12/31 06:29:52;;;;;;;0.90;0.75;;;14.20;97.20;;;;;;1726440;28;20506;-73
2022/12/31 06:30:44;;;;;;;1.00;0.60;;;14.30;97.20;;;;;;1726855;28;20330;-73
2022/12/31 06:31:36;;;;;;;1.23;0.60;;;14.30;97.20;;;;;;1726750;28;20204;-73
2022/12/31 06:32:28;;;;;;;0.80;0.70;;;14.30;97.20;;;;;;1726678;28;20212;-74
2022/12/31 06:33:19;;;;;;;1.27;0.80;;;14.30;97.20;;;;;;1727137;28;20223;-74
2022/12/31 06:34:11;;;;;;;0.70;0.50;;;14.30;97.20;;;;;;1727085;28;20192;-73
2022/12/31 06:35:02;;;;;;;1.73;0.65;;;14.30;97.20;;;;;;1727043;28;20204;-73
2022/12/31 06:35:55;;;;;;;0.80;0.60;;;14.30;97.20;;;;;;1727199;28;20208;-73
2022/12/31 06:36:46;;;;;;;1.05;0.60;;;14.30;97.20;;;;;;1726887;28;20201;-73
2022/12/31 06:37:38;;;;;;;0.77;0.60;;;14.30;97.20;;;;;;1727208;28;20208;-73
2022/12/31 06:38:30;;;;;;;4.35;0.80;;;14.30;97.20;;;;;;1727108;28;20251;-72
2022/12/31 06:39:22;;;;;;;1.70;0.60;;;14.30;97.20;;;;;;1726984;28;20616;-73
2022/12/31 06:40:13;;;;;;;0.80;0.70;;;14.30;97.20;;;;;;1727150;28;20208;-73
2022/12/31 06:41:05;;;;;;;1.00;0.60;;;14.30;97.20;;;;;;1727046;28;20193;-73
2022/12/31 06:41:56;;;;;;;0.70;0.60;;;14.30;97.20;;;;;;1726766;28;20208;-73
2022/12/31 06:42:47;;;;;;;0.80;0.70;;;14.30;97.20;;;;;;1726366;28;20200;-73
2022/12/31 06:43:39;;;;;;;1.75;0.88;;;14.30;97.20;;;;;;1726685;28;20238;-73
2022/12/31 06:44:30;;;;;;;0.80;0.70;;;14.30;97.20;;;;;;1727214;28;20201;-73
2022/12/31 06:45:21;;;;;;;0.82;0.60;;;14.30;97.20;;;;;;1726999;28;20211;-73
2022/12/31 06:46:15;;;;;;;0.93;0.60;;;14.30;97.20;;;;;;1727077;28;20219;-73
2022/12/31 06:47:07;;;;;;;1.00;0.75;;;14.30;97.20;;;;;;1726801;28;20552;-73
2022/12/31 06:47:59;;;;;;;0.77;0.60;;;14.30;97.20;;;;;;1727116;28;20212;-73
2022/12/31 06:48:50;;;;;;;1.08;0.80;;;14.30;97.20;;;;;;1727156;28;20204;-73
2022/12/31 06:49:41;;;;;;;0.73;0.60;;;14.30;97.20;;;;;;1727039;28;20680;-73
2022/12/31 06:50:32;;;;;;;0.82;0.70;;;14.30;97.20;;;;;;1727191;28;20267;-73
2022/12/31 06:51:24;;;;;;;1.02;0.70;;;14.30;97.20;;;;;;1726921;28;20200;-73
2022/12/31 06:52:15;;;;;;;2.85;0.70;;;14.30;97.20;;;;;;1726629;28;20200;-73
2022/12/31 06:53:07;;;;;;;1.40;0.70;;;14.30;97.20;;;;;;1727037;28;20205;-73
2022/12/31 06:53:58;;;;;;;0.73;0.60;;;14.30;97.20;;;;;;1726897;28;20201;-73
2022/12/31 06:54:50;;;;;;;1.47;0.60;;;14.30;97.20;;;;;;1727224;28;20211;-73
2022/12/31 06:55:41;;;;;;;1.00;0.70;;;14.30;97.20;;;;;;1726964;28;20259;-73
2022/12/31 06:56:33;;;;;;;2.75;0.95;;;14.30;97.20;;;;;;1727102;28;20658;-73
2022/12/31 06:57:25;;;;;;;1.38;0.70;;;14.30;97.20;;;;;;1726887;28;20208;-73
2022/12/31 06:58:17;;;;;;;0.90;0.80;;;14.30;97.20;;;;;;1727059;28;20224;-73
2022/12/31 06:59:23;;;;;;;0.70;0.65;;;14.30;97.20;;;;;;1727066;28;20204;-73
2022/12/31 07:00:16;;;;;;;2.65;0.80;;;14.30;97.20;;;;;;1727084;28;20243;-73
2022/12/31 07:01:41;;;;;;;1.38;0.80;;;14.30;97.20;;;;;;1727119;28;20204;-73
2022/12/31 07:02:52;;;;;;;1.30;0.80;;;14.30;97.20;;;;;;1719862;28;20284;-73
2022/12/31 07:03:47;;;;;;;2.45;0.88;;;14.30;97.20;;;;;;1720080;28;20644;-73
2022/12/31 07:05:05;;;;;;;0.70;0.60;;;14.30;97.20;;;;;;1720356;28;20233;-73
2022/12/31 07:06:00;;;;;;;1.55;0.70;;;14.30;97.20;;;;;;1725693;28;20655;-73
2022/12/31 07:06:58;;;;;;;0.90;0.63;;;14.30;97.20;;;;;;1728354;28;20220;-74
2022/12/31 07:08:00;;;;;;;2.10;0.80;;;14.20;97.20;;;;;;1728594;28;20284;-73
2022/12/31 07:09:01;;;;;;;1.00;0.73;;;14.20;97.20;;;;;;1728514;28;20196;-73
2022/12/31 07:10:00;;;;;;;1.00;0.75;;;14.20;97.20;;;;;;1728515;28;20212;-73
2022/12/31 07:10:58;;;;;;;0.88;0.65;;;14.20;97.20;;;;;;1728409;28;20216;-73
2022/12/31 07:11:59;;;;;;;0.80;0.68;;;14.20;97.20;;;;;;1728299;28;20188;-73
2022/12/31 07:13:09;;;;;;;1.20;0.80;;;14.20;97.20;;;;;;1727993;28;20200;-73
2022/12/31 07:14:16;;;;;;;1.10;0.77;;;14.20;97.20;;;;;;1728155;28;20212;-73
2022/12/31 07:15:15;;;;;;;0.77;0.65;;;14.20;97.20;;;;;;1728442;28;20684;-73
2022/12/31 07:16:17;;;;;;;3.08;0.90;;;14.20;97.20;;;;;;1728393;28;20278;-73
2022/12/31 07:17:19;;;;;;;0.80;0.70;;;14.30;97.20;;;;;;1727691;28;20255;-73
2022/12/31 07:18:19;;;;;;;1.08;0.73;;;14.30;97.20;;;;;;1721637;28;20627;-74
2022/12/31 07:19:21;;;;;;;0.80;0.60;;;14.30;97.20;;;;;;1721580;28;20186;-73
2022/12/31 07:20:14;;;;;;;1.38;0.60;;;14.30;97.20;;;;;;1721461;28;20229;-73
2022/12/31 07:21:11;;;;;;;0.80;0.70;;;14.30;97.20;;;;;;1721492;28;20197;-73
2022/12/31 07:22:02;;;;;;;1.15;0.80;;;14.30;97.20;;;;;;1726920;28;20193;-73
2022/12/31 07:22:55;;;;;;;0.70;0.60;;;14.30;97.20;;;;;;1727837;28;20218;-74
2022/12/31 07:23:46;;;;;;;3.45;1.23;;;14.30;97.20;;;;;;1728127;28;20200;-73
2022/12/31 07:24:38;;;;;;;1.02;0.90;;;14.30;97.20;;;;;;1728195;28;20211;-73
2022/12/31 07:25:29;;;;;;;1.10;0.70;;;14.30;97.20;;;;;;1728319;28;20558;-73
2022/12/31 07:26:35;;;;;;;2.50;0.90;;;14.40;97.20;;;;;;1728191;28;20200;-76
2022/12/31 07:28:01;;;;;;;0.75;0.60;;;14.40;97.20;;;;;;1728136;28;20721;-74
2022/12/31 07:30:38;;;;;;;0.70;0.70;;;14.40;97.20;;;;;;1726466;28;20588;-74
2022/12/31 07:31:49;;;;;;;0.90;0.70;;;14.40;97.20;;;;;;1728026;28;20662;-74
2022/12/31 07:33:27;;;;;;;1.50;1.40;;;14.40;97.20;;;;;;1727666;28;20236;-74
2022/12/31 07:34:26;;;;;;;1.30;1.20;;;14.40;97.20;;;;;;1701791;28;20203;-73
2022/12/31 07:35:27;;;;;;;1.13;0.80;;;14.40;97.20;;;;;;1728210;28;20228;-74
2022/12/31 07:36:54;;;;;;;1.52;1.10;;;14.50;97.20;;;;;;1728186;28;20204;-75
2022/12/31 07:37:54;;;;;;;1.10;0.80;;;14.40;97.20;;;;;;1728167;28;20208;-73
2022/12/31 07:38:53;;;;;;;1.75;0.80;;;14.50;97.20;;;;;;1728226;28;20495;-73
2022/12/31 07:39:53;;;;;;;4.35;0.90;;;14.50;97.20;;;;;;1728074;28;20265;-72
2022/12/31 07:40:56;;;;;;;1.20;0.80;;;14.50;97.20;;;;;;1728229;28;20232;-73
2022/12/31 07:41:53;;;;;;;0.90;0.80;;;14.50;97.20;;;;;;1727868;28;20532;-73
2022/12/31 07:43:01;;;;;;;1.10;0.70;;;14.50;97.20;;;;;;1727723;28;20197;-73
2022/12/31 07:43:59;;;;;;;1.40;0.90;;;14.50;97.20;;;;;;1728121;28;20647;-73
2022/12/31 07:44:59;;;;;;;0.80;0.57;;;14.50;97.20;;;;;;1728316;28;20212;-74
2022/12/31 07:45:57;;;;;;;0.80;0.70;;;14.60;97.20;;;;;;1728296;28;20208;-74
2022/12/31 07:46:55;;;;;;;3.38;0.82;;;14.50;97.20;;;;;;1728002;28;20339;-74
2022/12/31 07:47:46;;;;;;;1.00;0.70;;;14.60;97.20;;;;;;1728038;28;20188;-73
2022/12/31 07:48:40;;;;;;;0.80;0.60;;;14.60;97.20;;;;;;1728067;28;20611;-74
2022/12/31 07:49:32;;;;;;;1.85;0.98;;;14.60;97.20;;;;;;1728093;28;21591;-73
2022/12/31 07:50:25;;;;;;;1.67;0.80;;;14.60;97.20;;;;;;1725336;28;20192;-73
2022/12/31 07:51:16;;;;;;;1.55;0.80;;;14.60;97.20;;;;;;1728021;28;20208;-74
2022/12/31 07:52:09;;;;;;;2.38;0.90;;;14.60;97.20;;;;;;1727322;28;20196;-72
2022/12/31 07:53:00;;;;;;;1.77;0.90;;;14.60;97.20;;;;;;1728072;28;20251;-74
2022/12/31 07:53:51;;;;;;;0.98;0.70;;;14.60;97.20;;;;;;1727940;28;20247;-73
2022/12/31 07:54:42;;;;;;;1.00;0.80;;;14.60;97.20;;;;;;1728054;28;20223;-75
2022/12/31 07:55:34;;;;;;;0.93;0.80;;;14.60;97.20;;;;;;1728033;28;20193;-74
2022/12/31 07:56:25;;;;;;;1.10;0.82;;;14.60;97.20;;;;;;1728087;28;20440;-74
2022/12/31 07:57:18;;;;;;;0.97;0.87;;;14.60;97.20;;;;;;1728011;28;20193;-74
2022/12/31 07:58:19;;;;;;;1.10;0.70;;;14.60;97.20;;;;;;1728212;28;20197;-74
2022/12/31 07:59:22;;;;;;;1.00;0.80;;;14.60;97.20;;;;;;1728290;28;20181;-74
2022/12/31 08:00:14;;;;;;;1.40;0.90;;;14.60;97.20;;;;;;1728001;28;20790;-74
2022/12/31 08:01:09;;;;;;;1.50;0.95;;;14.60;97.20;;;;;;1728078;28;20196;-73
2022/12/31 08:02:05;;;;;;;1.50;0.70;;;14.60;97.20;;;;;;1727759;28;20204;-74
2022/12/31 08:03:07;;;;;;;1.10;0.77;;;14.60;97.20;;;;;;1727614;28;20701;-73
2022/12/31 08:04:04;;;;;;;0.90;0.70;;;14.60;97.20;;;;;;1727915;28;20215;-74
2022/12/31 08:05:06;;;;;;;1.67;0.70;;;14.60;97.20;;;;;;1728147;28;20208;-74
2022/12/31 08:06:09;;;;;;;0.90;0.65;;;14.60;97.20;;;;;;1728246;28;20204;-73
2022/12/31 08:07:10;;;;;;;3.83;0.77;;;14.60;97.20;;;;;;1729007;28;20236;-73
2022/12/31 08:08:11;;;;;;;1.20;0.80;;;14.70;97.20;;;;;;1729950;28;20200;-74
2022/12/31 08:09:08;;;;;;;1.85;1.17;;;14.70;97.20;;;;;;1729761;28;20596;-72
2022/12/31 08:10:05;;;;;;;1.35;0.70;;;14.70;97.20;;;;;;1730066;28;20212;-73
2022/12/31 08:11:06;;;;;;;1.10;0.80;;;14.70;97.20;;;;;;1729178;28;20295;-72
2022/12/31 08:12:00;;;;;;;1.60;0.70;;;14.80;97.20;;;;;;1729824;28;20205;-72
2022/12/31 08:13:00;;;;;;;0.82;0.70;;;14.80;97.20;;;;;;1728623;28;20570;-73
2022/12/31 08:13:52;;;;;;;0.80;0.70;;;14.80;97.20;;;;;;1727829;28;20201;-73
2022/12/31 08:14:47;;;;;;;0.93;0.77;;;14.90;97.20;;;;;;1728088;28;20220;-73
2022/12/31 08:15:39;;;;;;;1.20;0.70;;;14.90;97.20;;;;;;1728040;28;20296;-72
2022/12/31 08:16:32;;;;;;;0.90;0.70;;;15.00;97.20;;;;;;1728031;28;20204;-72
2022/12/31 08:17:23;;;;;;;1.10;0.73;;;15.00;97.20;;;;;;1727611;28;20223;-73
2022/12/31 08:18:15;;;;;;;2.08;0.70;;;15.10;97.20;;;;;;1727969;28;20215;-72
2022/12/31 08:19:19;;;;;;;0.90;0.70;;;15.10;97.20;;;;;;1727992;28;20207;-71
2022/12/31 08:20:14;;;;;;;1.45;0.80;;;15.10;97.20;;;;;;1728067;28;20216;-72
2022/12/31 08:21:19;;;;;;;0.90;0.77;;;15.10;97.20;;;;;;1727963;28;20258;-73
2022/12/31 08:22:39;;;;;;;1.10;0.77;;;15.20;97.20;;;;;;1727299;28;20185;-72
2022/12/31 08:23:38;;;;;;;0.80;0.60;;;15.20;97.20;;;;;;1727714;28;20207;-72
2022/12/31 08:24:39;;;;;;;1.60;0.70;;;15.30;97.20;;;;;;1727986;28;20207;-73
2022/12/31 08:25:40;;;;;;;1.33;0.70;;;15.30;97.20;;;;;;1728117;28;20189;-72
2022/12/31 08:26:37;;;;;;;1.10;1.00;;;15.30;97.20;;;;;;1728039;28;20208;-72
2022/12/31 08:27:36;;;;;;;0.82;0.75;;;15.40;97.20;;;;;;1728016;28;20207;-72
2022/12/31 08:28:44;;;;;;;1.25;0.82;;;15.50;97.20;;;;;;1727938;28;20292;-73
2022/12/31 08:29:42;;;;;;;1.15;0.65;;;15.50;97.20;;;;;;1727517;28;20209;-73
2022/12/31 08:30:49;;;;;;;0.98;0.88;;;15.60;97.20;;;;;;1727857;28;20722;-73
2022/12/31 08:31:48;;;;;;;2.13;1.10;;;15.70;97.20;;;;;;1727849;28;20205;-74
2022/12/31 08:32:44;;;;;;;0.80;0.70;;;15.80;97.20;;;;;;1727376;28;20193;-73
2022/12/31 08:33:44;;;;;;;1.80;0.98;;;15.90;97.20;;;;;;1727890;28;20201;-73
2022/12/31 08:34:46;;;;;;;1.08;0.77;;;16.00;97.20;;;;;;1727478;28;20201;-72
2022/12/31 08:35:55;;;;;;;0.80;0.73;;;16.20;97.20;;;;;;1725289;28;20197;-72
2022/12/31 08:36:55;;;;;;;0.90;0.70;;;16.40;97.20;;;;;;1723709;28;20189;-73
2022/12/31 08:37:52;;;;;;;0.80;0.60;;;16.80;97.20;;;;;;1727934;28;20554;-73
2022/12/31 08:38:49;;;;;;;0.80;0.60;;;17.20;97.20;;;;;;1727510;28;20239;-73
2022/12/31 08:39:56;;;;;;;1.35;0.85;;;17.90;97.20;;;;;;1727705;28;20208;-71
2022/12/31 08:40:55;;;;;;;0.90;0.70;;;18.80;97.20;;;;;;1727735;28;20256;-73
2022/12/31 08:41:49;;;;;;;1.35;0.57;;;19.80;97.20;;;;;;1728005;28;20216;-73
2022/12/31 08:42:50;;;;;;;1.23;0.60;;;20.50;97.20;;;;;;1727212;28;20213;-73
2022/12/31 08:43:49;;;;;;;1.45;0.90;;;21.00;97.20;;;;;;1727690;28;20236;-72
2022/12/31 08:44:50;;;;;;;0.90;0.65;;;20.90;97.20;;;;;;1727780;28;20632;-73
2022/12/31 08:45:47;;;;;;;0.90;0.70;;;20.50;97.20;;;;;;1727816;28;20636;-73
2022/12/31 08:46:46;;;;;;;0.77;0.60;;;20.10;97.20;;;;;;1727632;28;20208;-73
2022/12/31 08:47:45;;;;;;;1.13;0.70;;;19.60;97.20;;;;;;1727734;28;20204;-73
2022/12/31 08:48:39;;;;;;;1.33;0.80;;;19.10;97.20;;;;;;1727520;28;20328;-73
2022/12/31 08:49:33;;;;;;;1.20;0.70;;;18.70;97.20;;;;;;1721682;28;20209;-73
2022/12/31 08:50:27;;;;;;;1.25;0.80;;;18.40;97.20;;;;;;1727251;28;20200;-73
2022/12/31 08:51:21;;;;;;;1.10;0.80;;;18.10;97.20;;;;;;1727592;28;20284;-73
2022/12/31 08:52:19;;;;;;;2.22;0.85;;;17.80;97.20;;;;;;1725215;28;20741;-73
2022/12/31 08:53:10;;;;;;;1.25;0.80;;;17.50;97.20;;;;;;1727581;28;20208;-73
2022/12/31 08:54:02;;;;;;;2.67;0.70;;;17.30;97.20;;;;;;1727797;28;20232;-73
2022/12/31 08:54:54;;;;;;;0.93;0.70;;;17.10;97.20;;;;;;1727661;28;20242;-73
2022/12/31 08:55:48;;;;;;;1.10;0.60;;;16.90;97.20;;;;;;1727422;28;20275;-73
2022/12/31 08:56:47;;;;;;;1.00;0.70;;;16.80;97.20;;;;;;1727582;28;20207;-73
2022/12/31 08:57:45;;;;;;;0.80;0.60;;;16.70;97.20;;;;;;1727659;28;20205;-73
2022/12/31 08:58:46;;;;;;;1.40;0.80;;;16.60;97.20;;;;;;1727567;28;20631;-73
2022/12/31 08:59:44;;;;;;;1.15;0.70;;;16.50;97.20;;;;;;1727577;28;20193;-75
2022/12/31 09:00:36;;;;;;;1.25;0.93;;;16.40;97.20;;;;;;1727615;28;20272;-72
2022/12/31 09:01:34;;;;;;;1.00;0.70;;;16.40;97.20;;;;;;1727636;28;20743;-72
2022/12/31 09:02:58;;;;;;;1.67;0.80;;;16.40;97.20;;;;;;1726956;28;20205;-72
2022/12/31 09:04:16;;;;;;;1.30;0.90;;;16.40;97.20;;;;;;1720944;28;20200;-73
2022/12/31 09:05:18;;;;;;;0.93;0.60;;;16.30;97.20;;;;;;1721072;28;20648;-73
2022/12/31 09:06:18;;;;;;;1.10;0.80;;;16.40;97.20;;;;;;1721068;28;20214;-73
2022/12/31 09:07:11;;;;;;;1.52;0.63;;;16.40;97.20;;;;;;1724089;28;20189;-73
2022/12/31 09:08:11;;;;;;;1.60;0.85;;;16.50;97.20;;;;;;1720985;28;20196;-73
2022/12/31 09:09:11;;;;;;;1.50;0.80;;;16.50;97.20;;;;;;1721072;28;20204;-73
2022/12/31 09:10:14;;;;;;;0.80;0.70;;;16.60;97.20;;;;;;1720960;28;20256;-73
2022/12/31 09:11:13;;;;;;;1.10;0.70;;;16.60;97.20;;;;;;1721063;28;20189;-73
2022/12/31 09:12:14;;;;;;;0.70;0.70;;;16.70;97.20;;;;;;1720944;28;20655;-74
2022/12/31 09:13:13;;;;;;;1.80;0.70;;;16.80;97.20;;;;;;1720963;28;20190;-73
2022/12/31 09:14:25;;;;;;;0.90;0.80;;;17.20;97.20;;;;;;1720854;28;20201;-73
2022/12/31 09:15:21;;;;;;;1.85;0.90;;;18.00;97.20;;;;;;1720865;28;20205;-73
2022/12/31 09:16:23;;;;;;;0.80;0.70;;;18.80;97.20;;;;;;1720838;28;20205;-73
2022/12/31 09:17:33;;;;;;;2.60;0.90;;;19.70;97.20;;;;;;1723386;28;20201;-72
2022/12/31 09:18:25;;;;;;;1.67;0.60;;;20.70;97.20;;;;;;1727822;28;20181;-73
2022/12/31 09:19:16;;;;;;;1.25;0.80;;;21.70;97.20;;;;;;1727617;28;20208;-72
2022/12/31 09:20:15;;;;;;;1.50;0.60;;;22.50;97.20;;;;;;1727200;28;20218;-73
2022/12/31 09:21:08;;;;;;;0.88;0.70;;;23.30;97.20;;;;;;1727675;28;20201;-73
2022/12/31 09:22:01;;;;;;;1.05;0.80;;;24.20;97.20;;;;;;1727622;28;20251;-73
2022/12/31 09:22:54;;;;;;;0.80;0.60;;;24.90;97.20;;;;;;1727053;28;20212;-73
2022/12/31 09:23:46;;;;;;;1.73;0.90;;;25.60;97.20;;;;;;1727056;28;20721;-72
2022/12/31 09:24:38;;;;;;;1.02;0.85;;;26.40;97.20;;;;;;1727695;28;20656;-74
2022/12/31 09:25:31;;;;;;;2.15;0.65;;;26.90;97.20;;;;;;1727578;28;20192;-73
2022/12/31 09:26:40;;;;;;;1.02;0.80;;;27.40;97.20;;;;;;1727591;28;20551;-74
2022/12/31 09:27:41;;;;;;;1.25;0.93;;;27.80;97.20;;;;;;1727590;28;20667;-73
2022/12/31 09:28:39;;;;;;;1.00;0.70;;;28.00;97.20;;;;;;1727055;28;20709;-73
2022/12/31 09:29:42;;;;;;;1.10;0.73;;;28.00;97.20;;;;;;1727497;28;20205;-71
2022/12/31 09:30:42;;;;;;;1.60;0.70;;;28.00;97.20;;;;;;1727238;28;20240;-73
2022/12/31 09:31:38;;;;;;;1.25;0.90;;;28.10;97.20;;;;;;1727195;28;20196;-74
2022/12/31 09:32:41;;;;;;;0.95;0.60;;;28.20;97.20;;;;;;1726328;28;20595;-74
2022/12/31 09:33:39;;;;;;;1.00;0.68;;;28.40;97.20;;;;;;1724942;28;20590;-74
2022/12/31 09:34:37;;;;;;;1.23;0.70;;;28.50;97.20;;;;;;1727130;28;20193;-72
2022/12/31 09:35:35;;;;;;;1.85;0.90;;;28.70;97.20;;;;;;1726417;28;20227;-74
2022/12/31 09:36:31;;;;;;;0.90;0.70;;;29.10;97.20;;;;;;1727374;28;20185;-73
2022/12/31 09:37:35;;;;;;;1.55;0.60;;;29.60;97.20;;;;;;1727341;28;20228;-73
2022/12/31 09:38:35;;;;;;;1.10;0.80;;;30.20;97.20;;;;;;1727444;28;20866;-73
2022/12/31 09:39:36;;;;;;;1.63;0.80;;;30.60;97.20;;;;;;1727293;28;20215;-73
2022/12/31 09:40:50;;;;;;;1.27;0.90;;;31.20;97.20;;;;;;1727234;28;20193;-74
2022/12/31 09:42:33;;;;;;;1.38;0.90;;;31.90;97.20;;;;;;1727593;28;20208;-73
2022/12/31 09:43:59;;;;;;;1.40;0.80;;;32.70;97.20;;;;;;1699846;29;20203;-73
2022/12/31 09:45:27;;;;;;;1.38;0.90;;;33.80;96.80;;;;;;1693407;29;20207;-74
2022/12/31 09:47:03;;;;;;;0.90;0.65;;;34.70;94.20;;;;;;1719600;28;20681;-74
2022/12/31 09:48:43;;;;;;;1.42;0.77;;;35.40;92.30;;;;;;1727590;28;20810;-73
2022/12/31 09:50:01;;;;;;;0.80;0.70;;;36.00;89.10;;;;;;1727418;28;20212;-73
2022/12/31 09:51:05;;;;;;;0.80;0.60;;;36.00;88.20;;;;;;1727368;28;20221;-73
2022/12/31 09:52:12;;;;;;;1.75;0.80;;;35.30;89.40;;;;;;1727435;28;20199;-72
2022/12/31 09:53:29;;;;;;;1.42;0.70;;;34.70;90.30;;;;;;1727364;28;20235;-73
2022/12/31 09:54:34;;;;;;;0.80;0.60;;;34.50;91.10;;;;;;1727238;28;20188;-73
2022/12/31 09:55:37;;;;;;;1.85;0.70;;;34.20;90.60;;;;;;1725377;28;20200;-74
2022/12/31 09:56:32;;;;;;;0.90;0.70;;;34.00;90.60;;;;;;1727451;28;20254;-73
2022/12/31 09:57:39;;;;;;;1.80;0.75;;;33.90;90.40;;;;;;1727076;28;20215;-73
2022/12/31 09:58:40;;;;;;;2.55;0.80;;;33.80;90.60;;;;;;1727459;28;20189;-73
2022/12/31 09:59:40;;;;;;;1.13;0.75;;;34.00;90.70;;;;;;1727424;28;20624;-73
2022/12/31 10:00:42;;;;;;;1.25;0.80;;;34.40;90.20;;;;;;1727193;28;20635;-72
2022/12/31 10:01:44;;;;;;;0.93;0.60;;;34.80;88.90;;;;;;1727316;28;20667;-72
2022/12/31 10:03:00;;;;;;;1.10;0.80;;;35.10;87.90;;;;;;1726840;28;20185;-72
2022/12/31 10:04:38;;;;;;;4.07;1.02;;;35.40;87.40;;;;;;1726892;28;20208;-72
2022/12/31 10:05:49;;;;;;;1.15;0.60;;;35.80;86.30;;;;;;1727355;28;20196;-73
2022/12/31 10:06:51;;;;;;;1.00;0.90;;;36.30;85.60;;;;;;1727199;28;20556;-71
2022/12/31 10:07:51;;;;;;;2.85;1.17;;;36.50;84.80;;;;;;1727408;28;20208;-72
2022/12/31 10:09:05;;;;;;;1.10;0.80;;;36.50;84.80;;;;;;1727416;28;20249;-73
2022/12/31 10:10:07;;;;;;;2.55;0.80;;;36.50;84.00;;;;;;1727409;28;20630;-72
2022/12/31 10:11:01;;;;;;;1.83;0.77;;;36.50;84.50;;;;;;1727137;28;20225;-73
2022/12/31 10:12:22;;;;;;;1.00;0.80;;;36.50;84.40;;;;;;1726365;28;20201;-71
2022/12/31 10:13:29;;;;;;;2.35;0.80;;;36.40;83.40;;;;;;1720481;28;20216;-77
2022/12/31 10:14:33;;;;;;;2.00;0.80;;;36.20;83.70;;;;;;1725693;28;20196;-74
2022/12/31 10:15:38;;;;;;;2.33;1.05;;;36.10;84.30;;;;;;1727086;28;20200;-77
2022/12/31 10:16:52;;;;;;;0.80;0.60;;;36.20;84.50;;;;;;1727116;28;20689;-72
2022/12/31 10:17:59;;;;;;;1.23;0.90;;;36.60;84.20;;;;;;1727074;28;20211;-73
2022/12/31 10:19:14;;;;;;;1.20;0.90;;;36.70;83.10;;;;;;1726494;28;20460;-73
2022/12/31 10:20:20;;;;;;;0.95;0.70;;;36.50;83.20;;;;;;1714325;28;20202;-76
2022/12/31 10:21:27;;;;;;;2.33;0.80;;;35.90;83.70;;;;;;1726728;28;20291;-76
2022/12/31 10:22:42;;;;;;;1.27;0.70;;;35.70;84.40;;;;;;1720217;28;20201;-78
2022/12/31 10:24:09;;;;;;;0.80;0.70;;;35.80;84.20;;;;;;1720887;28;20459;-75
2022/12/31 10:25:27;;;;;;;0.90;0.80;;;36.20;83.40;;;;;;1726018;28;20459;-75
2022/12/31 10:26:30;;;;;;;1.00;0.75;;;36.50;82.40;;;;;;1727280;28;20526;-74
2022/12/31 10:27:35;;;;;;;1.58;0.70;;;36.50;82.10;;;;;;1727378;28;20193;-76
2022/12/31 10:28:37;;;;;;;0.90;0.63;;;36.70;82.30;;;;;;1727708;28;20196;-80
2022/12/31 10:29:39;;;;;;;2.28;1.08;;;37.00;82.10;;;;;;1727125;28;20443;-77
2022/12/31 10:30:35;;;;;;;0.90;0.77;;;37.50;81.70;;;;;;1726335;28;20200;-73
2022/12/31 10:31:38;;;;;;;1.00;0.80;;;37.90;81.10;;;;;;1726775;28;20470;-74
2022/12/31 10:32:41;;;;;;;1.17;0.83;;;38.40;80.50;;;;;;1725090;28;20444;-77
2022/12/31 10:33:43;;;;;;;0.80;0.70;;;38.80;78.40;;;;;;1721834;28;20980;-79
2022/12/31 10:34:50;;;;;;;1.00;0.80;;;38.90;78.40;;;;;;1724278;28;20463;-74
2022/12/31 10:35:48;;;;;;;2.53;1.00;;;39.30;77.40;;;;;;1725119;28;20192;-74
2022/12/31 10:36:52;;;;;;;1.10;0.88;;;39.30;76.90;;;;;;1723254;28;20447;-74
2022/12/31 10:37:54;;;;;;;1.03;0.60;;;39.30;77.00;;;;;;1727148;28;20193;-75
2022/12/31 10:38:55;;;;;;;1.90;0.80;;;39.10;76.60;;;;;;1727399;28;20432;-76
2022/12/31 10:39:59;;;;;;;2.55;0.80;;;38.60;76.90;;;;;;1727910;28;20436;-81
2022/12/31 10:41:36;;;;;;;1.23;0.88;;;38.50;77.50;;;;;;1730172;28;20216;-79
2022/12/31 10:42:55;;;;;;;1.55;0.70;;;38.50;77.30;;;;;;1728420;28;20212;-76
2022/12/31 10:44:10;;;;;;;1.23;0.80;;;39.20;76.50;;;;;;1725017;28;20247;-75
2022/12/31 10:45:40;;;;;;;0.90;0.73;;;39.90;76.20;;;;;;1728341;28;20447;-77
2022/12/31 10:47:04;;;;;;;0.90;0.70;;;40.70;75.00;;;;;;1708739;28;20965;-80
2022/12/31 10:48:27;;;;;;;0.83;0.70;;;41.20;73.50;;;;;;1728200;28;20474;-78
2022/12/31 10:50:16;;;;;;;1.37;0.83;;;41.40;73.90;;;;;;1724936;28;20546;-77
2022/12/31 10:51:42;;;;;;;1.20;0.80;;;41.30;72.70;;;;;;1707472;29;20862;-76
2022/12/31 10:53:30;;;;;;;2.63;1.27;;;40.90;73.00;;;;;;1706541;29;20448;-75
2022/12/31 10:55:03;;;;;;;1.60;0.83;;;40.40;73.30;;;;;;1707848;29;20454;-76
2022/12/31 10:56:14;;;;;;;1.10;0.60;;;40.30;73.40;;;;;;1700201;29;20491;-78
2022/12/31 10:57:26;;;;;;;1.60;0.90;;;40.20;74.10;;;;;;1701402;29;20454;-84
2022/12/31 10:58:43;;;;;;;2.03;1.07;;;40.10;73.40;;;;;;1706700;28;21119;-77
2022/12/31 11:00:02;;;;;;;1.33;0.70;;;39.80;73.10;;;;;;1728811;28;20788;-77
2022/12/31 11:01:03;;;;;;;2.33;1.10;;;39.50;73.90;;;;;;1728432;28;20471;-78
2022/12/31 11:02:07;;;;;;;13.80;1.10;;;39.30;74.80;;;;;;1728511;28;20420;-77
2022/12/31 11:03:45;;;;;;;2.03;0.80;;;39.20;74.40;;;;;;1728143;28;20454;-78
2022/12/31 11:05:03;;;;;;;3.00;1.00;;;39.10;74.60;;;;;;1725876;28;20452;-77
2022/12/31 11:06:26;;;;;;;1.40;1.03;;;39.50;74.40;;;;;;1728549;28;20467;-79
2022/12/31 11:07:54;;;;;;;1.23;1.07;;;39.50;73.30;;;;;;1727305;28;20939;-78
2022/12/31 11:09:07;;;;;;;2.30;1.07;;;39.70;73.40;;;;;;1719028;28;20459;-79
2022/12/31 11:10:19;;;;;;;2.03;1.03;;;39.80;73.50;;;;;;1727691;28;20448;-79
2022/12/31 11:11:28;;;;;;;1.23;0.80;;;39.80;73.30;;;;;;1728960;28;20427;-78
2022/12/31 11:12:42;;;;;;;2.90;1.03;;;39.70;73.00;;;;;;1721246;28;20435;-77
2022/12/31 11:14:17;;;;;;;1.83;0.90;;;39.10;73.10;;;;;;1721590;28;20428;-77
2022/12/31 11:15:25;;;;;;;1.30;0.80;;;39.10;73.70;;;;;;1727120;28;20443;-79
2022/12/31 11:16:46;;;;;;;1.13;0.80;;;39.00;74.30;;;;;;1721688;28;20475;-76
2022/12/31 11:17:47;;;;;;;1.97;1.00;;;38.70;74.30;;;;;;1728036;28;20459;-76
2022/12/31 11:18:50;;;;;;;2.57;0.90;;;38.20;74.60;;;;;;1728336;28;20502;-76
2022/12/31 11:19:54;;;;;;;1.67;1.13;;;37.70;74.90;;;;;;1727891;28;20884;-77
2022/12/31 11:21:07;;;;;;;2.20;1.40;;;37.60;76.10;;;;;;1728578;28;20471;-76
2022/12/31 11:22:20;;;;;;;1.10;0.77;;;37.80;75.40;;;;;;1728757;28;20929;-77